sensor_id;sensor_type;location;lat;lon;timestamp;P1;P2;P0
63707;PMS5003;67643;-34.198;22.084;2023-04-28T00:09:43;5;2;
63707;PMS5003;67643;-34.198;22.084;2023-04-28T00:12:12;5;4;
63707;PMS5003;67643;-34.198;22.084;2023-04-28T00:14:40;5;3;
63707;PMS5003;67643;-34.198;22.084;2023-04-28T00:17:09;4;3;
63707;PMS5003;67643;-34.198;22.084;2023-04-28T00:19:37;2;2;
63707;PMS5003;67643;-34.198;22.084;2023-04-28T00:22:06;1;1;
63707;PMS5003;67643;-34.198;22.084;2023-04-28T00:24:34;4;2;
63707;PMS5003;67643;-34.198;22.084;2023-04-28T00:27:03;2;2;
63707;PMS5003;67643;-34.198;22.084;2023-04-28T00:29:31;3;2;
63707;PMS5003;67643;-34.198;22.084;2023-04-28T00:32:00;5;2;
63707;PMS5003;67643;-34.198;22.084;2023-04-28T00:34:31;3;2;
63707;PMS5003;67643;-34.198;22.084;2023-04-28T00:37:00;4;3;
63707;PMS5003;67643;-34.198;22.084;2023-04-28T00:39:29;4;0;
63707;PMS5003;67643;-34.198;22.084;2023-04-28T00:41:57;1;1;
63707;PMS5003;67643;-34.198;22.084;2023-04-28T00:44:26;1;1;
63707;PMS5003;67643;-34.198;22.084;2023-04-28T00:46:54;3;1;
63707;PMS5003;67643;-34.198;22.084;2023-04-28T00:49:24;6;3;
63707;PMS5003;67643;-34.198;22.084;2023-04-28T00:51:52;1;1;
63707;PMS5003;67643;-34.198;22.084;2023-04-28T00:54:21;4;1;
63707;PMS5003;67643;-34.198;22.084;2023-04-28T00:56:49;1;1;
63707;PMS5003;67643;-34.198;22.084;2023-04-28T00:59:18;4;2;
63707;PMS5003;67643;-34.198;22.084;2023-04-28T01:01:46;1;1;
63707;PMS5003;67643;-34.198;22.084;2023-04-28T01:04:15;6;1;
63707;PMS5003;67643;-34.198;22.084;2023-04-28T01:06:47;5;2;
63707;PMS5003;67643;-34.198;22.084;2023-04-28T01:09:17;6;3;
63707;PMS5003;67643;-34.198;22.084;2023-04-28T01:11:46;4;3;
63707;PMS5003;67643;-34.198;22.084;2023-04-28T01:14:14;1;1;
63707;PMS5003;67643;-34.198;22.084;2023-04-28T01:16:43;2;2;
63707;PMS5003;67643;-34.198;22.084;2023-04-28T01:19:14;4;3;
63707;PMS5003;67643;-34.198;22.084;2023-04-28T01:21:46;2;0;
63707;PMS5003;67643;-34.198;22.084;2023-04-28T01:24:14;1;1;
63707;PMS5003;67643;-34.198;22.084;2023-04-28T01:26:43;3;1;
63707;PMS5003;67643;-34.198;22.084;2023-04-28T01:29:11;3;3;
63707;PMS5003;67643;-34.198;22.084;2023-04-28T01:31:40;1;1;
63707;PMS5003;67643;-34.198;22.084;2023-04-28T01:34:08;2;0;
63707;PMS5003;67643;-34.198;22.084;2023-04-28T01:36:37;5;2;
63707;PMS5003;67643;-34.198;22.084;2023-04-28T01:39:05;1;1;
63707;PMS5003;67643;-34.198;22.084;2023-04-28T01:41:33;5;3;
63707;PMS5003;67643;-34.198;22.084;2023-04-28T01:44:02;1;1;
63707;PMS5003;67643;-34.198;22.084;2023-04-28T01:46:30;4;2;
63707;PMS5003;67643;-34.198;22.084;2023-04-28T01:48:58;3;1;
63707;PMS5003;67643;-34.198;22.084;2023-04-28T01:51:27;5;1;
63707;PMS5003;67643;-34.198;22.084;2023-04-28T01:53:55;3;2;
63707;PMS5003;67643;-34.198;22.084;2023-04-28T01:56:24;2;2;
63707;PMS5003;67643;-34.198;22.084;2023-04-28T01:58:52;3;2;
63707;PMS5003;67643;-34.198;22.084;2023-04-28T02:01:21;6;3;
63707;PMS5003;67643;-34.198;22.084;2023-04-28T02:03:49;1;1;
63707;PMS5003;67643;-34.198;22.084;2023-04-28T02:06:17;5;1;
63707;PMS5003;67643;-34.198;22.084;2023-04-28T02:08:46;2;1;
63707;PMS5003;67643;-34.198;22.084;2023-04-28T02:11:14;3;1;
63707;PMS5003;67643;-34.198;22.084;2023-04-28T02:13:43;5;3;
63707;PMS5003;67643;-34.198;22.084;2023-04-28T02:16:12;7;2;
63707;PMS5003;67643;-34.198;22.084;2023-04-28T02:18:41;1;1;
63707;PMS5003;67643;-34.198;22.084;2023-04-28T02:21:09;3;3;
63707;PMS5003;67643;-34.198;22.084;2023-04-28T02:23:38;1;1;
63707;PMS5003;67643;-34.198;22.084;2023-04-28T02:26:06;6;1;
63707;PMS5003;67643;-34.198;22.084;2023-04-28T02:28:36;7;1;
63707;PMS5003;67643;-34.198;22.084;2023-04-28T02:31:06;3;1;
63707;PMS5003;67643;-34.198;22.084;2023-04-28T02:33:36;2;2;
63707;PMS5003;67643;-34.198;22.084;2023-04-28T02:36:05;0;0;
63707;PMS5003;67643;-34.198;22.084;2023-04-28T02:38:34;2;1;
63707;PMS5003;67643;-34.198;22.084;2023-04-28T02:41:03;2;1;
63707;PMS5003;67643;-34.198;22.084;2023-04-28T02:43:32;4;2;
63707;PMS5003;67643;-34.198;22.084;2023-04-28T02:46:01;5;2;
63707;PMS5003;67643;-34.198;22.084;2023-04-28T02:48:31;7;4;
63707;PMS5003;67643;-34.198;22.084;2023-04-28T02:51:00;7;2;
63707;PMS5003;67643;-34.198;22.084;2023-04-28T02:53:28;5;2;
63707;PMS5003;67643;-34.198;22.084;2023-04-28T02:55:57;5;2;
63707;PMS5003;67643;-34.198;22.084;2023-04-28T02:58:25;5;2;
63707;PMS5003;67643;-34.198;22.084;2023-04-28T03:00:54;6;2;
63707;PMS5003;67643;-34.198;22.084;2023-04-28T03:03:22;3;2;
63707;PMS5003;67643;-34.198;22.084;2023-04-28T03:05:51;1;1;
63707;PMS5003;67643;-34.198;22.084;2023-04-28T03:08:19;4;2;
63707;PMS5003;67643;-34.198;22.084;2023-04-28T03:10:47;1;1;
63707;PMS5003;67643;-34.198;22.084;2023-04-28T03:13:16;4;2;
63707;PMS5003;67643;-34.198;22.084;2023-04-28T03:15:45;4;0;
63707;PMS5003;67643;-34.198;22.084;2023-04-28T03:18:13;6;2;
63707;PMS5003;67643;-34.198;22.084;2023-04-28T03:20:42;1;1;
63707;PMS5003;67643;-34.198;22.084;2023-04-28T03:23:10;3;3;
63707;PMS5003;67643;-34.198;22.084;2023-04-28T03:25:39;4;1;
63707;PMS5003;67643;-34.198;22.084;2023-04-28T03:28:07;1;1;
63707;PMS5003;67643;-34.198;22.084;2023-04-28T03:30:36;2;2;
63707;PMS5003;67643;-34.198;22.084;2023-04-28T03:33:04;5;1;
63707;PMS5003;67643;-34.198;22.084;2023-04-28T03:35:33;3;3;
63707;PMS5003;67643;-34.198;22.084;2023-04-28T03:38:02;1;1;
63707;PMS5003;67643;-34.198;22.084;2023-04-28T03:40:30;1;1;
63707;PMS5003;67643;-34.198;22.084;2023-04-28T03:42:59;2;2;
63707;PMS5003;67643;-34.198;22.084;2023-04-28T03:45:27;6;3;
63707;PMS5003;67643;-34.198;22.084;2023-04-28T03:47:56;3;3;
63707;PMS5003;67643;-34.198;22.084;2023-04-28T03:50:24;4;1;
63707;PMS5003;67643;-34.198;22.084;2023-04-28T03:52:53;2;0;
63707;PMS5003;67643;-34.198;22.084;2023-04-28T03:55:22;2;1;
63707;PMS5003;67643;-34.198;22.084;2023-04-28T03:57:50;2;2;
63707;PMS5003;67643;-34.198;22.084;2023-04-28T04:00:18;1;1;
63707;PMS5003;67643;-34.198;22.084;2023-04-28T04:02:47;5;5;
63707;PMS5003;67643;-34.198;22.084;2023-04-28T04:05:15;6;3;
63707;PMS5003;67643;-34.198;22.084;2023-04-28T04:07:43;5;2;
63707;PMS5003;67643;-34.198;22.084;2023-04-28T04:10:12;3;1;
63707;PMS5003;67643;-34.198;22.084;2023-04-28T04:12:40;5;1;
63707;PMS5003;67643;-34.198;22.084;2023-04-28T04:15:09;1;1;
63707;PMS5003;67643;-34.198;22.084;2023-04-28T04:17:38;3;2;
63707;PMS5003;67643;-34.198;22.084;2023-04-28T04:20:07;1;1;
63707;PMS5003;67643;-34.198;22.084;2023-04-28T04:22:36;5;4;
63707;PMS5003;67643;-34.198;22.084;2023-04-28T04:25:05;5;3;
63707;PMS5003;67643;-34.198;22.084;2023-04-28T04:27:34;2;2;
63707;PMS5003;67643;-34.198;22.084;2023-04-28T04:30:03;4;3;
63707;PMS5003;67643;-34.198;22.084;2023-04-28T04:32:32;4;3;
63707;PMS5003;67643;-34.198;22.084;2023-04-28T04:35:00;4;2;
63707;PMS5003;67643;-34.198;22.084;2023-04-28T04:37:29;5;4;
63707;PMS5003;67643;-34.198;22.084;2023-04-28T04:39:57;2;2;
63707;PMS5003;67643;-34.198;22.084;2023-04-28T04:42:26;4;3;
63707;PMS5003;67643;-34.198;22.084;2023-04-28T04:44:54;11;6;
63707;PMS5003;67643;-34.198;22.084;2023-04-28T04:47:22;7;4;
63707;PMS5003;67643;-34.198;22.084;2023-04-28T04:49:51;7;3;
63707;PMS5003;67643;-34.198;22.084;2023-04-28T04:52:19;6;3;
63707;PMS5003;67643;-34.198;22.084;2023-04-28T04:54:48;5;3;
63707;PMS5003;67643;-34.198;22.084;2023-04-28T04:57:17;6;3;
63707;PMS5003;67643;-34.198;22.084;2023-04-28T04:59:45;9;6;
63707;PMS5003;67643;-34.198;22.084;2023-04-28T05:02:14;2;2;
63707;PMS5003;67643;-34.198;22.084;2023-04-28T05:04:42;7;4;
63707;PMS5003;67643;-34.198;22.084;2023-04-28T05:07:10;3;2;
63707;PMS5003;67643;-34.198;22.084;2023-04-28T05:09:39;3;0;
63707;PMS5003;67643;-34.198;22.084;2023-04-28T05:12:07;5;3;
63707;PMS5003;67643;-34.198;22.084;2023-04-28T05:14:36;4;1;
63707;PMS5003;67643;-34.198;22.084;2023-04-28T05:17:04;5;2;
63707;PMS5003;67643;-34.198;22.084;2023-04-28T05:19:33;2;2;
63707;PMS5003;67643;-34.198;22.084;2023-04-28T05:22:02;7;1;
63707;PMS5003;67643;-34.198;22.084;2023-04-28T05:24:30;2;2;
63707;PMS5003;67643;-34.198;22.084;2023-04-28T05:26:59;9;3;
63707;PMS5003;67643;-34.198;22.084;2023-04-28T05:29:27;7;3;
63707;PMS5003;67643;-34.198;22.084;2023-04-28T05:31:56;4;4;
63707;PMS5003;67643;-34.198;22.084;2023-04-28T05:34:24;4;3;
63707;PMS5003;67643;-34.198;22.084;2023-04-28T05:36:53;5;4;
63707;PMS5003;67643;-34.198;22.084;2023-04-28T05:39:21;2;2;
63707;PMS5003;67643;-34.198;22.084;2023-04-28T05:41:50;8;2;
63707;PMS5003;67643;-34.198;22.084;2023-04-28T05:44:19;4;4;
63707;PMS5003;67643;-34.198;22.084;2023-04-28T05:46:48;3;3;
63707;PMS5003;67643;-34.198;22.084;2023-04-28T05:49:17;10;7;
63707;PMS5003;67643;-34.198;22.084;2023-04-28T05:51:45;5;3;
63707;PMS5003;67643;-34.198;22.084;2023-04-28T05:54:13;6;5;
63707;PMS5003;67643;-34.198;22.084;2023-04-28T05:56:42;9;6;
63707;PMS5003;67643;-34.198;22.084;2023-04-28T05:59:11;3;3;
63707;PMS5003;67643;-34.198;22.084;2023-04-28T06:01:39;7;6;
63707;PMS5003;67643;-34.198;22.084;2023-04-28T08:05:59;12;9;
63707;PMS5003;67643;-34.198;22.084;2023-04-28T08:08:29;13;7;
63707;PMS5003;67643;-34.198;22.084;2023-04-28T08:10:58;12;7;
63707;PMS5003;67643;-34.198;22.084;2023-04-28T08:13:26;12;9;
63707;PMS5003;67643;-34.198;22.084;2023-04-28T08:15:55;16;9;
63707;PMS5003;67643;-34.198;22.084;2023-04-28T08:18:23;11;9;
63707;PMS5003;67643;-34.198;22.084;2023-04-28T08:20:53;11;8;
63707;PMS5003;67643;-34.198;22.084;2023-04-28T08:23:21;10;7;
63707;PMS5003;67643;-34.198;22.084;2023-04-28T08:25:49;8;6;
63707;PMS5003;67643;-34.198;22.084;2023-04-28T08:28:18;16;9;
63707;PMS5003;67643;-34.198;22.084;2023-04-28T08:30:46;13;7;
63707;PMS5003;67643;-34.198;22.084;2023-04-28T08:33:15;9;6;
63707;PMS5003;67643;-34.198;22.084;2023-04-28T08:35:44;14;6;
63707;PMS5003;67643;-34.198;22.084;2023-04-28T08:38:12;11;6;
63707;PMS5003;67643;-34.198;22.084;2023-04-28T08:40:41;7;5;
63707;PMS5003;67643;-34.198;22.084;2023-04-28T08:43:09;11;7;
63707;PMS5003;67643;-34.198;22.084;2023-04-28T08:45:39;10;7;
63707;PMS5003;67643;-34.198;22.084;2023-04-28T08:48:10;9;5;
63707;PMS5003;67643;-34.198;22.084;2023-04-28T08:50:44;10;6;
63707;PMS5003;67643;-34.198;22.084;2023-04-28T08:53:17;10;9;
63707;PMS5003;67643;-34.198;22.084;2023-04-28T08:55:50;7;4;
63707;PMS5003;67643;-34.198;22.084;2023-04-28T08:58:22;7;4;
63707;PMS5003;67643;-34.198;22.084;2023-04-28T09:00:51;12;5;
63707;PMS5003;67643;-34.198;22.084;2023-04-28T09:03:19;12;7;
63707;PMS5003;67643;-34.198;22.084;2023-04-28T09:05:48;8;4;
63707;PMS5003;67643;-34.198;22.084;2023-04-28T09:08:17;4;4;
63707;PMS5003;67643;-34.198;22.084;2023-04-28T09:10:46;6;4;
63707;PMS5003;67643;-34.198;22.084;2023-04-28T09:13:31;6;3;
63707;PMS5003;67643;-34.198;22.084;2023-04-28T09:16:00;4;4;
63707;PMS5003;67643;-34.198;22.084;2023-04-28T09:18:29;7;3;
63707;PMS5003;67643;-34.198;22.084;2023-04-28T09:21:06;6;4;
63707;PMS5003;67643;-34.198;22.084;2023-04-28T09:23:45;7;3;
63707;PMS5003;67643;-34.198;22.084;2023-04-28T09:26:15;3;3;
63707;PMS5003;67643;-34.198;22.084;2023-04-28T09:28:43;3;2;
63707;PMS5003;67643;-34.198;22.084;2023-04-28T09:31:21;8;4;
63707;PMS5003;67643;-34.198;22.084;2023-04-28T09:33:58;13;6;
63707;PMS5003;67643;-34.198;22.084;2023-04-28T09:36:27;4;3;
63707;PMS5003;67643;-34.198;22.084;2023-04-28T09:38:56;7;5;
63707;PMS5003;67643;-34.198;22.084;2023-04-28T09:41:34;2;2;
63707;PMS5003;67643;-34.198;22.084;2023-04-28T09:44:11;5;3;
63707;PMS5003;67643;-34.198;22.084;2023-04-28T09:46:41;5;3;
63707;PMS5003;67643;-34.198;22.084;2023-04-28T09:49:10;6;3;
63707;PMS5003;67643;-34.198;22.084;2023-04-28T09:51:39;7;3;
63707;PMS5003;67643;-34.198;22.084;2023-04-28T09:54:07;5;5;
63707;PMS5003;67643;-34.198;22.084;2023-04-28T09:56:37;5;4;
63707;PMS5003;67643;-34.198;22.084;2023-04-28T09:59:10;6;3;
63707;PMS5003;67643;-34.198;22.084;2023-04-28T10:01:39;4;2;
63707;PMS5003;67643;-34.198;22.084;2023-04-28T10:04:09;4;2;
63707;PMS5003;67643;-34.198;22.084;2023-04-28T10:06:38;5;5;
63707;PMS5003;67643;-34.198;22.084;2023-04-28T10:09:08;141;122;
63707;PMS5003;67643;-34.198;22.084;2023-04-28T10:11:37;132;118;
63707;PMS5003;67643;-34.198;22.084;2023-04-28T10:14:05;234;209;
63707;PMS5003;67643;-34.198;22.084;2023-04-28T10:16:35;228;201;
63707;PMS5003;67643;-34.198;22.084;2023-04-28T10:19:03;279;240;
63707;PMS5003;67643;-34.198;22.084;2023-04-28T10:21:34;273;234;
63707;PMS5003;67643;-34.198;22.084;2023-04-28T10:24:14;295;248;
63707;PMS5003;67643;-34.198;22.084;2023-04-28T10:27:06;320;270;
63707;PMS5003;67643;-34.198;22.084;2023-04-28T10:29:35;331;284;
63707;PMS5003;67643;-34.198;22.084;2023-04-28T10:32:36;321;284;
63707;PMS5003;67643;-34.198;22.084;2023-04-28T10:36:10;279;250;
63707;PMS5003;67643;-34.198;22.084;2023-04-28T10:39:12;298;256;
63707;PMS5003;67643;-34.198;22.084;2023-04-28T10:41:40;295;253;
63707;PMS5003;67643;-34.198;22.084;2023-04-28T10:44:44;266;239;
63707;PMS5003;67643;-34.198;22.084;2023-04-28T10:47:13;274;228;
63707;PMS5003;67643;-34.198;22.084;2023-04-28T10:50:13;262;221;
63707;PMS5003;67643;-34.198;22.084;2023-04-28T10:52:49;248;212;
63707;PMS5003;67643;-34.198;22.084;2023-04-28T10:55:33;234;213;
63707;PMS5003;67643;-34.198;22.084;2023-04-28T10:58:34;222;194;
63707;PMS5003;67643;-34.198;22.084;2023-04-28T11:01:30;196;173;
63707;PMS5003;67643;-34.198;22.084;2023-04-28T11:04:02;218;188;
63707;PMS5003;67643;-34.198;22.084;2023-04-28T11:06:32;173;148;
63707;PMS5003;67643;-34.198;22.084;2023-04-28T11:09:03;158;142;
63707;PMS5003;67643;-34.198;22.084;2023-04-28T11:12:27;135;118;
63707;PMS5003;67643;-34.198;22.084;2023-04-28T11:14:55;130;113;
63707;PMS5003;67643;-34.198;22.084;2023-04-28T11:17:38;115;94;
63707;PMS5003;67643;-34.198;22.084;2023-04-28T11:20:11;115;100;
63707;PMS5003;67643;-34.198;22.084;2023-04-28T11:22:40;99;89;
63707;PMS5003;67643;-34.198;22.084;2023-04-28T11:25:09;102;85;
63707;PMS5003;67643;-34.198;22.084;2023-04-28T11:27:38;78;72;
63707;PMS5003;67643;-34.198;22.084;2023-04-28T11:30:19;79;66;
63707;PMS5003;67643;-34.198;22.084;2023-04-28T11:32:48;69;59;
63707;PMS5003;67643;-34.198;22.084;2023-04-28T11:35:18;62;55;
63707;PMS5003;67643;-34.198;22.084;2023-04-28T11:37:46;57;50;
63707;PMS5003;67643;-34.198;22.084;2023-04-28T11:40:28;51;45;
63707;PMS5003;67643;-34.198;22.084;2023-04-28T11:42:57;44;40;
63707;PMS5003;67643;-34.198;22.084;2023-04-28T11:45:25;38;31;
63707;PMS5003;67643;-34.198;22.084;2023-04-28T11:47:53;41;32;
63707;PMS5003;67643;-34.198;22.084;2023-04-28T11:50:34;34;29;
63707;PMS5003;67643;-34.198;22.084;2023-04-28T11:53:03;34;25;
63707;PMS5003;67643;-34.198;22.084;2023-04-28T11:55:32;31;22;
63707;PMS5003;67643;-34.198;22.084;2023-04-28T11:58:33;26;26;
63707;PMS5003;67643;-34.198;22.084;2023-04-28T12:01:06;26;22;
63707;PMS5003;67643;-34.198;22.084;2023-04-28T12:03:43;25;20;
63707;PMS5003;67643;-34.198;22.084;2023-04-28T12:06:16;17;16;
63707;PMS5003;67643;-34.198;22.084;2023-04-28T12:08:45;25;19;
63707;PMS5003;67643;-34.198;22.084;2023-04-28T12:11:15;18;17;
63707;PMS5003;67643;-34.198;22.084;2023-04-28T12:13:44;18;15;
63707;PMS5003;67643;-34.198;22.084;2023-04-28T12:16:38;19;13;
63707;PMS5003;67643;-34.198;22.084;2023-04-28T12:19:09;14;12;
63707;PMS5003;67643;-34.198;22.084;2023-04-28T12:21:39;15;11;
63707;PMS5003;67643;-34.198;22.084;2023-04-28T12:24:24;17;11;
63707;PMS5003;67643;-34.198;22.084;2023-04-28T12:26:53;12;11;
63707;PMS5003;67643;-34.198;22.084;2023-04-28T12:29:40;13;10;
63707;PMS5003;67643;-34.198;22.084;2023-04-28T12:32:09;12;11;
63707;PMS5003;67643;-34.198;22.084;2023-04-28T12:34:39;10;8;
63707;PMS5003;67643;-34.198;22.084;2023-04-28T12:37:08;10;9;
63707;PMS5003;67643;-34.198;22.084;2023-04-28T12:39:38;8;8;
63707;PMS5003;67643;-34.198;22.084;2023-04-28T12:42:07;7;6;
63707;PMS5003;67643;-34.198;22.084;2023-04-28T12:44:36;15;10;
63707;PMS5003;67643;-34.198;22.084;2023-04-28T12:47:05;9;6;
63707;PMS5003;67643;-34.198;22.084;2023-04-28T12:49:34;9;7;
63707;PMS5003;67643;-34.198;22.084;2023-04-28T12:52:03;7;4;
63707;PMS5003;67643;-34.198;22.084;2023-04-28T12:54:32;9;8;
63707;PMS5003;67643;-34.198;22.084;2023-04-28T12:57:00;4;4;
63707;PMS5003;67643;-34.198;22.084;2023-04-28T12:59:29;7;4;
63707;PMS5003;67643;-34.198;22.084;2023-04-28T13:01:58;5;3;
63707;PMS5003;67643;-34.198;22.084;2023-04-28T13:04:26;6;3;
63707;PMS5003;67643;-34.198;22.084;2023-04-28T13:06:55;10;2;
63707;PMS5003;67643;-34.198;22.084;2023-04-28T13:09:24;6;3;
63707;PMS5003;67643;-34.198;22.084;2023-04-28T13:11:53;8;5;
63707;PMS5003;67643;-34.198;22.084;2023-04-28T13:14:22;8;4;
63707;PMS5003;67643;-34.198;22.084;2023-04-28T13:16:52;8;4;
63707;PMS5003;67643;-34.198;22.084;2023-04-28T13:19:21;6;5;
63707;PMS5003;67643;-34.198;22.084;2023-04-28T13:21:49;6;3;
63707;PMS5003;67643;-34.198;22.084;2023-04-28T13:24:18;4;3;
63707;PMS5003;67643;-34.198;22.084;2023-04-28T13:26:47;5;5;
63707;PMS5003;67643;-34.198;22.084;2023-04-28T13:29:15;6;4;
63707;PMS5003;67643;-34.198;22.084;2023-04-28T13:31:43;9;3;
63707;PMS5003;67643;-34.198;22.084;2023-04-28T13:34:12;5;3;
63707;PMS5003;67643;-34.198;22.084;2023-04-28T13:36:40;4;2;
63707;PMS5003;67643;-34.198;22.084;2023-04-28T13:39:09;6;6;
63707;PMS5003;67643;-34.198;22.084;2023-04-28T13:41:38;7;5;
63707;PMS5003;67643;-34.198;22.084;2023-04-28T13:44:07;5;2;
63707;PMS5003;67643;-34.198;22.084;2023-04-28T13:46:36;8;4;
63707;PMS5003;67643;-34.198;22.084;2023-04-28T13:49:05;9;5;
63707;PMS5003;67643;-34.198;22.084;2023-04-28T13:51:33;6;3;
63707;PMS5003;67643;-34.198;22.084;2023-04-28T13:54:02;3;3;
63707;PMS5003;67643;-34.198;22.084;2023-04-28T13:56:30;3;2;
63707;PMS5003;67643;-34.198;22.084;2023-04-28T13:58:59;8;5;
63707;PMS5003;67643;-34.198;22.084;2023-04-28T16:05:42;100;93;
63707;PMS5003;67643;-34.198;22.084;2023-04-28T16:08:11;219;193;
63707;PMS5003;67643;-34.198;22.084;2023-04-28T16:10:39;227;205;
63707;PMS5003;67643;-34.198;22.084;2023-04-28T16:13:07;221;200;
63707;PMS5003;67643;-34.198;22.084;2023-04-28T16:15:36;209;181;
63707;PMS5003;67643;-34.198;22.084;2023-04-28T16:18:05;193;179;
63707;PMS5003;67643;-34.198;22.084;2023-04-28T16:20:33;194;168;
63707;PMS5003;67643;-34.198;22.084;2023-04-28T16:23:03;178;164;
63707;PMS5003;67643;-34.198;22.084;2023-04-28T16:25:32;146;138;
63707;PMS5003;67643;-34.198;22.084;2023-04-28T16:28:01;136;128;
63707;PMS5003;67643;-34.198;22.084;2023-04-28T16:30:29;152;129;
63707;PMS5003;67643;-34.198;22.084;2023-04-28T16:32:57;148;136;
63707;PMS5003;67643;-34.198;22.084;2023-04-28T16:35:26;146;130;
63707;PMS5003;67643;-34.198;22.084;2023-04-28T16:37:54;139;125;
63707;PMS5003;67643;-34.198;22.084;2023-04-28T16:40:23;72;66;
63707;PMS5003;67643;-34.198;22.084;2023-04-28T16:42:52;66;56;
63707;PMS5003;67643;-34.198;22.084;2023-04-28T16:45:21;42;40;
63707;PMS5003;67643;-34.198;22.084;2023-04-28T16:47:49;46;41;
63707;PMS5003;67643;-34.198;22.084;2023-04-28T16:50:17;35;35;
63707;PMS5003;67643;-34.198;22.084;2023-04-28T16:52:45;41;37;
63707;PMS5003;67643;-34.198;22.084;2023-04-28T16:55:14;34;32;
63707;PMS5003;67643;-34.198;22.084;2023-04-28T16:57:43;34;29;
63707;PMS5003;67643;-34.198;22.084;2023-04-28T17:00:11;34;33;
63707;PMS5003;67643;-34.198;22.084;2023-04-28T17:02:40;42;36;
63707;PMS5003;67643;-34.198;22.084;2023-04-28T17:05:09;32;30;
63707;PMS5003;67643;-34.198;22.084;2023-04-28T17:07:38;30;26;
63707;PMS5003;67643;-34.198;22.084;2023-04-28T17:10:07;26;26;
63707;PMS5003;67643;-34.198;22.084;2023-04-28T17:12:36;29;28;
63707;PMS5003;67643;-34.198;22.084;2023-04-28T17:15:05;27;26;
63707;PMS5003;67643;-34.198;22.084;2023-04-28T17:17:35;30;24;
63707;PMS5003;67643;-34.198;22.084;2023-04-28T17:20:03;26;23;
63707;PMS5003;67643;-34.198;22.084;2023-04-28T17:22:32;29;27;
63707;PMS5003;67643;-34.198;22.084;2023-04-28T17:25:00;33;29;
63707;PMS5003;67643;-34.198;22.084;2023-04-28T17:27:29;42;32;
63707;PMS5003;67643;-34.198;22.084;2023-04-28T17:29:58;33;28;
63707;PMS5003;67643;-34.198;22.084;2023-04-28T17:32:26;52;45;
63707;PMS5003;67643;-34.198;22.084;2023-04-28T17:34:55;50;46;
63707;PMS5003;67643;-34.198;22.084;2023-04-28T17:37:24;52;45;
63707;PMS5003;67643;-34.198;22.084;2023-04-28T17:39:53;50;48;
63707;PMS5003;67643;-34.198;22.084;2023-04-28T17:42:21;70;57;
63707;PMS5003;67643;-34.198;22.084;2023-04-28T17:44:50;55;50;
63707;PMS5003;67643;-34.198;22.084;2023-04-28T17:47:19;49;46;
63707;PMS5003;67643;-34.198;22.084;2023-04-28T17:49:47;55;50;
63707;PMS5003;67643;-34.198;22.084;2023-04-28T17:52:16;47;37;
63707;PMS5003;67643;-34.198;22.084;2023-04-28T17:54:45;43;36;
63707;PMS5003;67643;-34.198;22.084;2023-04-28T17:57:14;44;39;
63707;PMS5003;67643;-34.198;22.084;2023-04-28T17:59:42;46;42;
63707;PMS5003;67643;-34.198;22.084;2023-04-28T18:02:14;41;39;
63707;PMS5003;67643;-34.198;22.084;2023-04-28T18:04:43;45;39;
63707;PMS5003;67643;-34.198;22.084;2023-04-28T18:07:12;41;38;
63707;PMS5003;67643;-34.198;22.084;2023-04-28T18:09:44;30;28;
63707;PMS5003;67643;-34.198;22.084;2023-04-28T18:12:13;29;25;
63707;PMS5003;67643;-34.198;22.084;2023-04-28T18:14:41;27;24;
63707;PMS5003;67643;-34.198;22.084;2023-04-28T18:17:10;27;24;
63707;PMS5003;67643;-34.198;22.084;2023-04-28T18:19:38;17;16;
63707;PMS5003;67643;-34.198;22.084;2023-04-28T18:22:07;22;20;
63707;PMS5003;67643;-34.198;22.084;2023-04-28T18:24:38;26;21;
63707;PMS5003;67643;-34.198;22.084;2023-04-28T18:27:07;29;23;
63707;PMS5003;67643;-34.198;22.084;2023-04-28T18:29:36;25;22;
63707;PMS5003;67643;-34.198;22.084;2023-04-28T18:32:04;24;20;
63707;PMS5003;67643;-34.198;22.084;2023-04-28T18:34:33;24;22;
63707;PMS5003;67643;-34.198;22.084;2023-04-28T18:37:01;24;20;
63707;PMS5003;67643;-34.198;22.084;2023-04-28T18:39:29;17;17;
63707;PMS5003;67643;-34.198;22.084;2023-04-28T18:42:02;18;14;
63707;PMS5003;67643;-34.198;22.084;2023-04-28T18:44:31;19;15;
63707;PMS5003;67643;-34.198;22.084;2023-04-28T18:46:59;16;12;
63707;PMS5003;67643;-34.198;22.084;2023-04-28T18:49:27;16;12;
63707;PMS5003;67643;-34.198;22.084;2023-04-28T18:51:56;17;15;
63707;PMS5003;67643;-34.198;22.084;2023-04-28T18:54:24;16;12;
63707;PMS5003;67643;-34.198;22.084;2023-04-28T18:56:53;16;14;
63707;PMS5003;67643;-34.198;22.084;2023-04-28T18:59:26;13;10;
63707;PMS5003;67643;-34.198;22.084;2023-04-28T19:01:55;10;10;
63707;PMS5003;67643;-34.198;22.084;2023-04-28T19:04:24;17;13;
63707;PMS5003;67643;-34.198;22.084;2023-04-28T19:06:53;11;8;
63707;PMS5003;67643;-34.198;22.084;2023-04-28T19:09:22;12;11;
63707;PMS5003;67643;-34.198;22.084;2023-04-28T19:11:51;16;12;
63707;PMS5003;67643;-34.198;22.084;2023-04-28T19:14:20;10;9;
63707;PMS5003;67643;-34.198;22.084;2023-04-28T19:16:49;14;12;
63707;PMS5003;67643;-34.198;22.084;2023-04-28T19:19:17;13;9;
63707;PMS5003;67643;-34.198;22.084;2023-04-28T19:21:46;10;8;
63707;PMS5003;67643;-34.198;22.084;2023-04-28T19:24:14;12;10;
63707;PMS5003;67643;-34.198;22.084;2023-04-28T19:26:42;10;7;
63707;PMS5003;67643;-34.198;22.084;2023-04-28T19:29:11;10;8;
63707;PMS5003;67643;-34.198;22.084;2023-04-28T19:31:39;10;7;
63707;PMS5003;67643;-34.198;22.084;2023-04-28T19:34:08;8;7;
63707;PMS5003;67643;-34.198;22.084;2023-04-28T19:36:36;7;6;
63707;PMS5003;67643;-34.198;22.084;2023-04-28T19:39:05;8;6;
63707;PMS5003;67643;-34.198;22.084;2023-04-28T19:41:34;7;5;
63707;PMS5003;67643;-34.198;22.084;2023-04-28T19:44:02;7;7;
63707;PMS5003;67643;-34.198;22.084;2023-04-28T19:46:31;7;7;
63707;PMS5003;67643;-34.198;22.084;2023-04-28T19:48:59;9;7;
63707;PMS5003;67643;-34.198;22.084;2023-04-28T19:51:28;11;8;
63707;PMS5003;67643;-34.198;22.084;2023-04-28T19:53:57;9;7;
63707;PMS5003;67643;-34.198;22.084;2023-04-28T19:56:25;8;7;
63707;PMS5003;67643;-34.198;22.084;2023-04-28T19:58:54;6;6;
63707;PMS5003;67643;-34.198;22.084;2023-04-28T20:01:22;6;6;
63707;PMS5003;67643;-34.198;22.084;2023-04-28T20:03:50;7;6;
63707;PMS5003;67643;-34.198;22.084;2023-04-28T20:06:19;6;6;
63707;PMS5003;67643;-34.198;22.084;2023-04-28T20:08:48;8;8;
63707;PMS5003;67643;-34.198;22.084;2023-04-28T20:11:16;7;5;
63707;PMS5003;67643;-34.198;22.084;2023-04-28T20:13:45;6;6;
63707;PMS5003;67643;-34.198;22.084;2023-04-28T20:16:14;8;4;
63707;PMS5003;67643;-34.198;22.084;2023-04-28T20:18:42;9;7;
63707;PMS5003;67643;-34.198;22.084;2023-04-28T20:21:11;5;4;
63707;PMS5003;67643;-34.198;22.084;2023-04-28T20:23:39;5;5;
63707;PMS5003;67643;-34.198;22.084;2023-04-28T20:26:11;9;4;
63707;PMS5003;67643;-34.198;22.084;2023-04-28T20:28:39;5;4;
63707;PMS5003;67643;-34.198;22.084;2023-04-28T20:31:09;5;3;
63707;PMS5003;67643;-34.198;22.084;2023-04-28T20:33:37;6;6;
63707;PMS5003;67643;-34.198;22.084;2023-04-28T20:36:06;6;4;